Time;durP1;ratioP1;P1;durP2;ratioP2;P2;SDS_P1;SDS_P2;PMS_P1;PMS_P2;Temp;Humidity;BMP_temperature;BMP_pressure;BME280_temperature;BME280_humidity;BME280_pressure;Samples;Min_cycle;Max_cycle;Signal;HPM_P1;HPM_P2
2022/01/10 00:01:28;;;;;;;6.85;2.70;;;1.00;91.20;;;;;;5097311;28;20723;-73
2022/01/10 00:03:55;;;;;;;9.15;3.92;;;1.00;91.50;;;;;;5099923;28;20030;-73
2022/01/10 00:06:20;;;;;;;9.52;5.35;;;0.90;91.70;;;;;;5099084;28;20398;-73
2022/01/10 00:08:46;;;;;;;8.57;4.40;;;1.00;91.80;;;;;;5107571;28;20027;-73
2022/01/10 00:11:12;;;;;;;9.85;4.75;;;1.00;91.80;;;;;;5100833;28;20499;-73
2022/01/10 00:13:37;;;;;;;7.35;3.58;;;0.90;92.20;;;;;;5100888;28;20023;-73
2022/01/10 00:16:03;;;;;;;6.07;2.72;;;0.80;91.70;;;;;;5103663;28;20031;-73
2022/01/10 00:18:29;;;;;;;5.85;2.88;;;0.70;91.60;;;;;;5107481;28;20455;-73
2022/01/10 00:20:55;;;;;;;5.93;3.03;;;0.70;91.60;;;;;;5100814;28;20031;-73
2022/01/10 00:23:20;;;;;;;5.85;3.33;;;0.80;91.40;;;;;;5103805;28;20063;-73
2022/01/10 00:25:46;;;;;;;8.80;3.67;;;0.80;91.70;;;;;;5108676;28;20503;-73
2022/01/10 00:28:11;;;;;;;8.05;4.40;;;0.80;91.60;;;;;;5104946;27;20019;-73
2022/01/10 00:30:37;;;;;;;9.45;3.92;;;0.90;91.60;;;;;;5109450;28;20032;-73
2022/01/10 00:33:03;;;;;;;6.18;2.97;;;0.90;91.60;;;;;;5109576;28;20028;-73
2022/01/10 00:35:29;;;;;;;8.32;3.83;;;0.90;91.50;;;;;;5109305;28;20454;-73
2022/01/10 00:37:54;;;;;;;8.55;4.07;;;0.80;91.60;;;;;;5105635;28;20355;-73
2022/01/10 00:40:21;;;;;;;9.57;3.97;;;0.90;91.60;;;;;;5112491;28;20082;-73
2022/01/10 00:42:54;;;;;;;7.97;4.43;;;0.80;91.90;;;;;;5110617;28;20098;-73
2022/01/10 00:45:25;;;;;;;10.60;4.88;;;0.80;91.90;;;;;;5103870;28;20119;-73
2022/01/10 00:47:53;;;;;;;8.80;4.40;;;0.80;92.10;;;;;;5109709;28;20027;-73
2022/01/10 00:50:19;;;;;;;7.82;4.40;;;0.80;92.00;;;;;;5112396;28;20088;-73
2022/01/10 00:52:45;;;;;;;9.43;4.68;;;0.90;91.90;;;;;;5104952;28;20023;-73
2022/01/10 00:55:11;;;;;;;9.43;4.88;;;0.90;92.10;;;;;;5113169;28;20115;-73
2022/01/10 00:57:37;;;;;;;9.52;4.63;;;0.80;92.20;;;;;;5112804;28;20030;-73
2022/01/10 01:00:05;;;;;;;12.43;5.63;;;0.90;92.10;;;;;;5111983;28;20052;-73
2022/01/10 01:02:32;;;;;;;8.27;4.18;;;0.90;92.20;;;;;;5104440;28;20084;-73
2022/01/10 01:05:00;;;;;;;7.78;4.43;;;0.90;92.10;;;;;;5111102;28;20050;-73
2022/01/10 01:07:26;;;;;;;7.78;4.20;;;0.80;92.30;;;;;;5101903;28;20142;-73
2022/01/10 01:10:03;;;;;;;13.23;4.85;;;0.80;92.20;;;;;;5108174;28;20106;-73
2022/01/10 01:12:44;;;;;;;6.45;3.40;;;0.70;92.10;;;;;;5100096;28;20035;-73
2022/01/10 01:18:00;;;;;;;7.25;3.90;;;0.50;92.20;;;;;;5105523;28;20397;-73
2022/01/10 01:25:40;;;;;;;8.65;4.13;;;0.60;92.40;;;;;;5105943;28;20042;-73
2022/01/10 01:28:05;;;;;;;8.00;3.80;;;0.50;92.50;;;;;;5109568;28;20036;-73
2022/01/10 01:30:31;;;;;;;7.25;3.60;;;0.70;92.30;;;;;;5112066;28;20024;-73
2022/01/10 01:32:58;;;;;;;11.00;4.60;;;0.70;92.30;;;;;;5103519;28;20050;-73
2022/01/10 01:35:25;;;;;;;10.40;5.07;;;0.80;92.10;;;;;;5110273;28;20470;-73
2022/01/10 01:37:51;;;;;;;10.48;5.47;;;0.80;92.20;;;;;;5103422;28;20031;-73
2022/01/10 01:40:19;;;;;;;10.80;4.65;;;0.80;92.40;;;;;;5112309;28;20035;-73
2022/01/10 01:42:45;;;;;;;8.90;5.03;;;0.60;92.80;;;;;;5102003;28;20035;-73
2022/01/10 01:45:12;;;;;;;14.00;5.90;;;0.60;92.90;;;;;;5102904;28;20402;-73
2022/01/10 01:47:39;;;;;;;11.32;6.00;;;0.40;93.00;;;;;;5101987;28;20070;-73
2022/01/10 01:50:07;;;;;;;10.65;4.82;;;0.40;93.00;;;;;;5113256;28;20051;-73
2022/01/10 01:52:33;;;;;;;9.60;4.70;;;0.30;93.40;;;;;;5106174;28;20019;-73
2022/01/10 01:54:59;;;;;;;12.70;4.90;;;0.20;93.10;;;;;;5110697;28;20052;-73
2022/01/10 01:57:26;;;;;;;8.90;4.28;;;0.20;93.50;;;;;;5108104;28;20115;-73
2022/01/10 01:59:51;;;;;;;7.25;4.18;;;0.20;93.20;;;;;;5107372;27;20027;-73
2022/01/10 02:02:17;;;;;;;9.30;3.92;;;0.40;92.80;;;;;;5107650;28;20031;-73
2022/01/10 02:04:43;;;;;;;9.32;4.35;;;0.60;92.50;;;;;;5109202;28;20035;-73
2022/01/10 02:07:09;;;;;;;10.13;4.80;;;0.60;92.40;;;;;;5109731;28;20047;-74
2022/01/10 02:09:35;;;;;;;6.90;3.72;;;0.60;92.50;;;;;;5103802;27;20024;-73
2022/01/10 02:12:00;;;;;;;8.00;3.85;;;0.50;93.30;;;;;;5098813;28;20039;-73
2022/01/10 02:14:26;;;;;;;7.38;4.80;;;0.40;92.60;;;;;;5104588;28;20031;-73
2022/01/10 02:16:56;;;;;;;6.90;3.47;;;0.60;92.60;;;;;;5102527;28;20030;-73
2022/01/10 02:19:25;;;;;;;6.00;3.53;;;0.60;92.30;;;;;;5112380;28;20032;-74
2022/01/10 02:21:52;;;;;;;6.40;3.83;;;0.60;92.30;;;;;;5111323;28;20439;-73
2022/01/10 02:24:18;;;;;;;10.27;4.93;;;0.60;92.20;;;;;;5108622;28;20448;-73
2022/01/10 02:26:51;;;;;;;7.30;3.72;;;0.70;92.20;;;;;;5107796;28;20020;-74
2022/01/10 02:29:17;;;;;;;7.15;3.30;;;0.50;92.40;;;;;;5111141;28;20410;-73
2022/01/10 02:31:45;;;;;;;7.88;3.42;;;0.50;92.20;;;;;;5109993;28;20062;-74
2022/01/10 02:34:16;;;;;;;6.70;3.58;;;0.40;92.40;;;;;;5106596;28;20032;-74
2022/01/10 02:36:42;;;;;;;8.00;4.07;;;0.40;92.40;;;;;;5109605;28;20024;-74
2022/01/10 02:39:10;;;;;;;5.15;2.50;;;0.30;92.30;;;;;;5104964;28;20095;-73
2022/01/10 02:41:38;;;;;;;4.47;2.42;;;0.30;92.30;;;;;;5111125;28;20377;-73
2022/01/10 02:44:11;;;;;;;3.78;2.28;;;0.60;91.50;;;;;;5105411;28;20062;-73
2022/01/10 02:46:38;;;;;;;7.78;2.33;;;0.80;91.20;;;;;;5109117;28;20105;-73
2022/01/10 02:49:12;;;;;;;6.20;2.95;;;0.90;91.20;;;;;;5100898;28;20047;-73
2022/01/10 02:51:38;;;;;;;3.90;1.88;;;1.00;91.00;;;;;;5105684;28;20351;-73
2022/01/10 02:54:04;;;;;;;5.93;2.55;;;1.00;90.80;;;;;;5105541;28;20044;-74
2022/01/10 02:56:30;;;;;;;5.65;1.90;;;1.10;90.70;;;;;;5109527;28;20039;-73
2022/01/10 02:58:56;;;;;;;5.50;2.60;;;1.10;90.40;;;;;;5109070;28;20027;-73
2022/01/10 03:01:22;;;;;;;4.38;1.73;;;1.10;90.50;;;;;;5100086;28;20062;-73
2022/01/10 03:03:48;;;;;;;4.57;1.88;;;0.90;90.80;;;;;;5103854;28;20023;-73
2022/01/10 03:06:14;;;;;;;3.28;1.77;;;1.20;90.20;;;;;;5101753;28;20043;-73
2022/01/10 03:08:39;;;;;;;3.05;1.70;;;1.30;90.10;;;;;;5108065;28;20016;-73
2022/01/10 03:11:05;;;;;;;7.10;2.53;;;1.10;90.20;;;;;;5106970;28;20038;-74
2022/01/10 03:13:31;;;;;;;3.85;2.05;;;1.30;89.90;;;;;;5110722;28;20027;-73
2022/01/10 03:15:56;;;;;;;3.97;1.75;;;0.90;90.30;;;;;;5105900;28;20031;-74
2022/01/10 03:18:22;;;;;;;5.70;2.70;;;1.10;90.20;;;;;;5102953;28;20024;-73
2022/01/10 03:20:48;;;;;;;4.97;1.85;;;1.00;90.40;;;;;;5101834;28;20111;-73
2022/01/10 03:23:14;;;;;;;6.32;1.58;;;0.90;90.60;;;;;;5105293;28;20055;-73
2022/01/10 03:25:39;;;;;;;4.90;2.30;;;0.70;90.70;;;;;;5110552;28;20443;-73
2022/01/10 03:28:06;;;;;;;4.80;2.05;;;0.80;90.70;;;;;;5109436;28;20031;-73
2022/01/10 03:30:34;;;;;;;3.63;1.90;;;0.80;90.70;;;;;;5108437;28;20034;-73
2022/01/10 03:33:01;;;;;;;4.45;2.03;;;0.70;90.90;;;;;;5102546;28;20030;-73
2022/01/10 03:35:28;;;;;;;3.95;1.52;;;0.70;90.70;;;;;;5101084;28;20027;-73
2022/01/10 03:37:54;;;;;;;4.03;1.73;;;0.50;90.90;;;;;;5108813;28;20117;-73
2022/01/10 03:40:19;;;;;;;3.20;1.55;;;0.60;91.10;;;;;;5105923;28;20041;-73
2022/01/10 03:42:45;;;;;;;3.58;2.00;;;0.80;90.70;;;;;;5096436;28;20028;-73
2022/01/10 03:45:11;;;;;;;5.07;1.90;;;1.30;89.80;;;;;;5109062;28;20447;-74
2022/01/10 03:47:37;;;;;;;3.63;1.80;;;1.20;90.00;;;;;;5108301;28;20042;-73
2022/01/10 03:50:05;;;;;;;5.85;3.05;;;1.50;88.70;;;;;;5104106;28;20470;-73
2022/01/10 03:52:30;;;;;;;5.40;2.53;;;1.40;90.30;;;;;;5102054;28;20423;-74
2022/01/10 03:54:56;;;;;;;5.18;2.33;;;1.20;90.10;;;;;;5110475;28;20068;-74
2022/01/10 03:57:22;;;;;;;4.78;1.92;;;1.70;88.10;;;;;;5102011;28;20111;-74
2022/01/10 03:59:47;;;;;;;3.60;1.50;;;1.80;87.60;;;;;;5108614;28;20371;-74
2022/01/10 04:02:13;;;;;;;4.93;1.85;;;1.60;88.30;;;;;;5103933;28;20039;-73
2022/01/10 04:04:39;;;;;;;4.28;1.48;;;1.50;88.40;;;;;;5098421;28;20039;-72
2022/01/10 04:07:05;;;;;;;3.50;1.30;;;1.60;88.20;;;;;;5095818;28;20020;-73
2022/01/10 04:09:31;;;;;;;4.38;1.70;;;1.50;88.10;;;;;;5093242;28;20160;-73
2022/01/10 04:11:57;;;;;;;2.97;1.60;;;1.70;87.40;;;;;;5097111;28;20028;-72
2022/01/10 04:14:23;;;;;;;3.75;1.58;;;1.80;86.90;;;;;;5097445;28;20042;-73
2022/01/10 04:16:49;;;;;;;5.97;2.15;;;1.90;86.80;;;;;;5093869;28;20035;-72
2022/01/10 04:19:14;;;;;;;3.17;1.40;;;1.90;86.50;;;;;;5101058;28;20030;-72
2022/01/10 04:21:40;;;;;;;4.20;1.95;;;1.90;86.30;;;;;;5093177;28;20059;-72
2022/01/10 04:24:06;;;;;;;5.10;1.77;;;2.00;85.80;;;;;;5102128;28;20587;-72
2022/01/10 04:26:32;;;;;;;7.28;2.00;;;1.90;86.00;;;;;;5092642;28;20076;-73
2022/01/10 04:28:58;;;;;;;6.40;1.90;;;1.80;86.20;;;;;;5102392;28;20055;-73
2022/01/10 04:31:23;;;;;;;4.85;1.33;;;1.60;87.00;;;;;;5103784;28;20140;-72
2022/01/10 04:33:49;;;;;;;3.00;1.33;;;1.30;87.80;;;;;;5097383;28;20034;-73
2022/01/10 04:36:15;;;;;;;4.50;2.05;;;1.10;88.40;;;;;;5100134;28;20104;-73
2022/01/10 04:38:42;;;;;;;3.13;1.27;;;1.20;88.50;;;;;;5102104;28;20069;-72
2022/01/10 04:41:09;;;;;;;4.60;1.40;;;1.10;90.60;;;;;;5103398;28;20089;-73
2022/01/10 04:43:36;;;;;;;3.45;1.30;;;0.80;90.70;;;;;;5097082;28;20085;-72
2022/01/10 04:46:02;;;;;;;9.40;3.42;;;1.40;87.40;;;;;;5104432;28;20034;-73
2022/01/10 04:48:28;;;;;;;7.75;2.67;;;0.90;91.10;;;;;;5102120;28;20036;-73
2022/01/10 04:53:24;;;;;;;8.45;4.50;;;1.00;90.00;;;;;;5094399;28;20052;-73
2022/01/10 04:55:50;;;;;;;9.73;4.65;;;0.80;91.50;;;;;;5103665;28;20027;-73
2022/01/10 04:58:15;;;;;;;10.48;4.47;;;0.40;92.40;;;;;;5103633;28;20031;-73
2022/01/10 05:00:41;;;;;;;7.20;4.40;;;0.30;92.90;;;;;;5097366;28;20024;-72
2022/01/10 05:03:07;;;;;;;2.53;1.10;;;0.20;92.80;;;;;;5096423;28;20128;-72
2022/01/10 05:05:32;;;;;;;2.63;1.33;;;1.30;88.80;;;;;;5105542;28;20031;-72
2022/01/10 05:07:58;;;;;;;2.78;1.10;;;1.90;86.50;;;;;;5102581;28;20114;-73
2022/01/10 05:10:24;;;;;;;3.03;1.30;;;2.00;85.90;;;;;;5102972;28;20076;-72
2022/01/10 05:12:50;;;;;;;3.13;1.50;;;1.70;86.30;;;;;;5098557;28;20061;-73
2022/01/10 05:15:15;;;;;;;3.70;1.50;;;1.80;86.10;;;;;;5097802;28;20092;-73
2022/01/10 05:17:43;;;;;;;3.08;1.20;;;1.80;86.10;;;;;;5095962;28;20043;-72
2022/01/10 05:20:09;;;;;;;2.67;1.05;;;1.90;85.90;;;;;;5104887;28;20027;-72
2022/01/10 05:22:35;;;;;;;3.05;1.58;;;2.00;85.60;;;;;;5107091;28;20119;-72
2022/01/10 05:25:01;;;;;;;3.60;1.48;;;2.10;85.10;;;;;;5106284;28;20111;-71
2022/01/10 05:27:27;;;;;;;2.70;1.17;;;1.70;86.10;;;;;;5100098;28;20143;-73
2022/01/10 05:29:52;;;;;;;5.00;1.33;;;1.70;86.20;;;;;;5105127;28;20478;-72
2022/01/10 05:32:18;;;;;;;4.10;1.35;;;1.40;87.50;;;;;;5105377;28;20039;-72
2022/01/10 05:34:44;;;;;;;2.90;1.00;;;1.40;87.30;;;;;;5103777;28;20110;-72
2022/01/10 05:37:09;;;;;;;3.35;1.02;;;1.40;87.40;;;;;;5103633;27;20046;-72
2022/01/10 05:39:35;;;;;;;3.33;1.67;;;1.40;86.70;;;;;;5098949;28;20038;-71
2022/01/10 05:42:01;;;;;;;2.53;1.38;;;1.50;86.70;;;;;;5107842;28;20034;-72
2022/01/10 05:44:27;;;;;;;3.53;1.00;;;1.30;87.50;;;;;;5106693;28;20090;-72
2022/01/10 05:46:53;;;;;;;2.78;0.90;;;1.40;86.80;;;;;;5100790;28;20446;-72
2022/01/10 05:49:25;;;;;;;2.28;1.00;;;1.50;86.50;;;;;;5096880;28;20107;-72
2022/01/10 05:51:51;;;;;;;2.28;0.90;;;2.00;84.90;;;;;;5101091;28;20081;-72
2022/01/10 05:54:16;;;;;;;1.13;0.70;;;2.10;84.30;;;;;;5100849;28;20043;-72
2022/01/10 05:56:42;;;;;;;2.63;1.08;;;2.00;84.50;;;;;;5096632;28;20542;-72
2022/01/10 05:59:08;;;;;;;1.88;0.95;;;2.10;84.20;;;;;;5104112;28;20038;-72
2022/01/10 06:01:33;;;;;;;2.35;0.90;;;2.00;84.00;;;;;;5106615;28;20031;-72
2022/01/10 06:03:59;;;;;;;1.40;0.70;;;2.10;83.80;;;;;;5106224;28;21160;-72
2022/01/10 06:06:25;;;;;;;2.20;1.13;;;2.20;83.30;;;;;;5100723;28;20051;-72
2022/01/10 06:08:51;;;;;;;2.78;1.13;;;2.10;83.70;;;;;;5091110;28;20024;-72
2022/01/10 06:11:16;;;;;;;1.35;0.60;;;2.20;83.60;;;;;;5102242;28;20080;-72
2022/01/10 06:13:42;;;;;;;2.80;1.17;;;2.30;83.10;;;;;;5102944;28;20035;-73
2022/01/10 06:16:08;;;;;;;2.65;0.90;;;2.10;83.50;;;;;;5106817;28;20024;-73
2022/01/10 06:18:33;;;;;;;1.85;0.70;;;2.10;83.20;;;;;;5098983;28;20028;-72
2022/01/10 06:20:59;;;;;;;1.60;0.70;;;2.10;83.30;;;;;;5104776;28;20423;-72
2022/01/10 06:23:25;;;;;;;2.53;1.05;;;2.00;83.60;;;;;;5103528;28;20065;-72
2022/01/10 06:25:51;;;;;;;2.10;0.77;;;2.00;83.90;;;;;;5099040;28;20498;-73
2022/01/10 06:28:18;;;;;;;5.90;1.08;;;1.80;84.20;;;;;;5106770;28;20020;-72
2022/01/10 06:30:44;;;;;;;1.83;0.90;;;1.60;84.90;;;;;;5097894;28;20638;-72
2022/01/10 06:33:10;;;;;;;1.60;0.50;;;1.40;85.30;;;;;;5104409;28;20027;-72
2022/01/10 06:35:37;;;;;;;2.67;0.90;;;1.40;85.60;;;;;;5103167;28;20020;-72
2022/01/10 06:38:03;;;;;;;1.60;0.73;;;1.60;85.00;;;;;;5100201;28;20037;-72
2022/01/10 06:40:29;;;;;;;1.65;0.65;;;1.90;85.40;;;;;;5102488;28;20056;-72
2022/01/10 06:42:55;;;;;;;2.30;0.60;;;2.00;82.90;;;;;;5104689;28;20539;-72
2022/01/10 06:45:20;;;;;;;3.58;0.98;;;2.00;83.00;;;;;;5107691;28;20038;-72
2022/01/10 06:47:47;;;;;;;1.88;0.50;;;2.00;82.80;;;;;;5107411;28;20035;-72
2022/01/10 06:50:13;;;;;;;0.93;0.57;;;1.80;84.50;;;;;;5107384;28;20101;-72
2022/01/10 06:52:39;;;;;;;2.17;0.85;;;2.00;82.90;;;;;;5089835;28;20073;-71
2022/01/10 06:55:05;;;;;;;2.90;0.80;;;1.90;83.50;;;;;;5099209;28;20067;-72
2022/01/10 06:57:31;;;;;;;1.88;0.77;;;2.00;82.90;;;;;;5102209;27;20070;-72
2022/01/10 06:59:57;;;;;;;1.35;0.68;;;2.10;82.50;;;;;;5110713;28;20410;-72
2022/01/10 07:02:22;;;;;;;2.20;0.95;;;2.00;83.10;;;;;;5103498;28;20039;-71
2022/01/10 07:04:49;;;;;;;2.78;0.70;;;2.20;82.10;;;;;;5102086;28;20083;-72
2022/01/10 07:07:15;;;;;;;0.75;0.50;;;2.40;81.20;;;;;;5095536;28;20482;-71
2022/01/10 07:09:41;;;;;;;3.25;0.98;;;2.40;81.20;;;;;;5103395;28;20035;-72
2022/01/10 07:12:08;;;;;;;2.13;0.70;;;2.50;80.80;;;;;;5098386;28;20035;-72
2022/01/10 07:14:35;;;;;;;1.13;0.60;;;2.40;81.60;;;;;;5098188;28;20102;-72
2022/01/10 07:17:02;;;;;;;0.95;0.57;;;2.40;81.00;;;;;;5102450;28;20547;-72
2022/01/10 07:19:28;;;;;;;2.20;0.68;;;2.50;81.10;;;;;;5103478;28;20038;-72
2022/01/10 07:21:54;;;;;;;1.38;0.70;;;2.30;81.70;;;;;;5104016;28;20147;-72
2022/01/10 07:24:20;;;;;;;1.10;0.60;;;2.30;81.40;;;;;;5103478;28;20035;-72
2022/01/10 07:26:46;;;;;;;1.42;0.50;;;2.30;81.60;;;;;;5101956;28;20599;-72
2022/01/10 07:29:12;;;;;;;1.35;0.70;;;2.70;79.80;;;;;;5103916;28;20111;-72
2022/01/10 07:31:40;;;;;;;1.58;0.68;;;2.80;79.30;;;;;;5100595;28;20108;-72
2022/01/10 07:34:10;;;;;;;1.38;0.65;;;2.50;81.60;;;;;;5103355;28;20035;-72
2022/01/10 07:36:36;;;;;;;1.30;0.55;;;2.50;80.30;;;;;;5101466;28;20054;-72
2022/01/10 07:39:02;;;;;;;1.13;0.45;;;2.70;79.70;;;;;;5103936;28;20490;-72
2022/01/10 07:41:28;;;;;;;1.08;0.70;;;2.60;80.60;;;;;;5103230;28;20066;-72
2022/01/10 07:43:56;;;;;;;2.47;0.88;;;2.50;80.70;;;;;;5102259;28;20107;-72
2022/01/10 07:46:23;;;;;;;1.77;0.57;;;2.60;80.30;;;;;;5103489;28;20062;-72
2022/01/10 07:48:49;;;;;;;1.50;0.60;;;2.70;80.20;;;;;;5098943;28;20020;-72
2022/01/10 07:51:15;;;;;;;1.45;0.70;;;2.70;80.50;;;;;;5100229;28;20077;-72
2022/01/10 07:53:42;;;;;;;1.38;0.60;;;2.80;80.30;;;;;;5102705;28;20092;-72
2022/01/10 07:56:09;;;;;;;3.25;0.70;;;2.80;79.80;;;;;;5103074;28;20498;-73
2022/01/10 07:58:36;;;;;;;1.15;0.80;;;2.90;79.40;;;;;;5102692;28;20680;-70
2022/01/10 08:01:02;;;;;;;3.03;0.82;;;3.10;78.90;;;;;;5103550;28;20024;-72
2022/01/10 08:03:28;;;;;;;2.85;1.00;;;3.10;78.40;;;;;;5103270;28;20112;-72
2022/01/10 08:05:54;;;;;;;4.45;1.80;;;3.10;78.80;;;;;;5094026;28;20543;-72
2022/01/10 08:08:19;;;;;;;1.90;0.73;;;3.10;78.80;;;;;;5096092;28;20461;-72
2022/01/10 08:10:45;;;;;;;2.30;0.80;;;3.10;79.50;;;;;;5103527;28;20027;-71
2022/01/10 08:13:11;;;;;;;2.08;0.63;;;3.00;79.90;;;;;;5103189;28;20023;-72
2022/01/10 08:15:37;;;;;;;2.55;0.90;;;3.00;78.90;;;;;;5103695;28;20057;-71
2022/01/10 08:18:05;;;;;;;1.70;0.65;;;3.10;79.10;;;;;;5094966;28;20016;-72
2022/01/10 08:20:30;;;;;;;1.70;0.80;;;3.10;79.70;;;;;;5099848;28;20103;-71
2022/01/10 08:22:56;;;;;;;2.17;1.15;;;3.20;79.30;;;;;;5094029;28;20106;-72
2022/01/10 08:25:22;;;;;;;3.70;0.90;;;3.20;78.90;;;;;;5094023;28;20393;-71
2022/01/10 08:27:48;;;;;;;1.55;1.00;;;3.20;78.70;;;;;;5099645;28;20065;-72
2022/01/10 08:30:14;;;;;;;4.53;3.20;;;3.10;79.10;;;;;;5097793;28;20024;-71
2022/01/10 08:32:40;;;;;;;3.90;2.78;;;3.20;79.50;;;;;;5103553;28;20830;-71
2022/01/10 08:35:06;;;;;;;3.00;1.98;;;3.30;79.10;;;;;;5103603;28;20039;-71
2022/01/10 08:37:32;;;;;;;4.45;1.63;;;3.30;79.50;;;;;;5098795;28;20043;-72
2022/01/10 08:39:58;;;;;;;3.45;1.10;;;3.30;79.00;;;;;;5097256;28;20023;-72
2022/01/10 08:42:26;;;;;;;2.17;0.88;;;3.40;78.40;;;;;;5103214;28;20235;-71
2022/01/10 08:44:53;;;;;;;1.98;0.82;;;3.40;77.10;;;;;;5103152;28;20032;-72
2022/01/10 08:47:20;;;;;;;2.20;0.70;;;3.40;77.80;;;;;;5104051;28;20035;-71
2022/01/10 08:49:45;;;;;;;2.78;0.95;;;3.40;78.70;;;;;;5106230;28;20157;-71
2022/01/10 08:52:11;;;;;;;1.88;0.50;;;3.40;78.60;;;;;;5107035;28;20487;-72
2022/01/10 08:54:37;;;;;;;1.67;0.70;;;3.40;77.40;;;;;;5106209;28;20043;-71
2022/01/10 08:57:03;;;;;;;1.95;0.73;;;3.40;78.10;;;;;;5105095;28;20030;-71
2022/01/10 08:59:29;;;;;;;3.35;0.98;;;3.40;77.60;;;;;;5105784;28;20039;-71
2022/01/10 09:01:56;;;;;;;2.45;0.70;;;3.30;77.90;;;;;;5106955;28;20024;-71
2022/01/10 09:04:22;;;;;;;3.45;1.00;;;3.30;77.20;;;;;;5106686;28;20046;-71
2022/01/10 09:06:54;;;;;;;2.95;1.05;;;3.30;77.50;;;;;;5098332;28;20027;-72
2022/01/10 09:09:21;;;;;;;1.80;0.63;;;3.20;79.00;;;;;;5105825;28;20015;-71
2022/01/10 09:11:47;;;;;;;2.15;0.70;;;3.10;79.10;;;;;;5107058;28;20615;-72
2022/01/10 09:14:14;;;;;;;1.60;0.50;;;3.20;77.40;;;;;;5096651;28;20081;-72
2022/01/10 09:16:41;;;;;;;1.48;0.60;;;3.20;79.20;;;;;;5106074;28;20041;-71
2022/01/10 09:19:07;;;;;;;2.70;0.90;;;3.20;78.00;;;;;;5105471;28;20039;-72
2022/01/10 09:21:33;;;;;;;16.85;9.02;;;3.10;78.60;;;;;;5104931;28;20504;-72
2022/01/10 09:23:59;;;;;;;3.45;1.30;;;3.20;78.20;;;;;;5106955;28;20549;-72
2022/01/10 09:26:26;;;;;;;2.90;0.82;;;3.10;78.10;;;;;;5106844;28;20089;-72
2022/01/10 09:28:52;;;;;;;2.22;1.15;;;3.10;78.10;;;;;;5106814;27;20032;-72
2022/01/10 09:31:20;;;;;;;5.85;0.95;;;3.20;78.60;;;;;;5100591;27;20370;-72
2022/01/10 09:33:52;;;;;;;1.75;0.90;;;3.10;78.20;;;;;;5106678;28;20024;-72
2022/01/10 09:36:18;;;;;;;4.03;1.00;;;3.10;78.80;;;;;;5106088;28;20104;-72
2022/01/10 09:38:44;;;;;;;2.15;1.08;;;3.20;77.80;;;;;;5102495;28;20023;-71
2022/01/10 09:41:10;;;;;;;2.25;0.75;;;3.20;77.70;;;;;;5101368;28;20497;-72
2022/01/10 09:43:36;;;;;;;1.90;0.93;;;3.20;77.90;;;;;;5106214;28;20024;-71
2022/01/10 09:46:02;;;;;;;3.15;1.13;;;3.30;77.80;;;;;;5105762;28;20047;-72
2022/01/10 09:48:27;;;;;;;2.95;1.17;;;3.30;78.00;;;;;;5103505;28;20101;-72
2022/01/10 09:50:53;;;;;;;1.38;0.80;;;3.30;78.30;;;;;;5106234;28;20521;-72
2022/01/10 09:53:24;;;;;;;2.03;0.90;;;3.40;77.00;;;;;;5104214;28;20087;-72
2022/01/10 09:55:50;;;;;;;4.40;1.08;;;3.40;78.00;;;;;;5105268;28;20046;-72
2022/01/10 09:58:16;;;;;;;2.22;0.70;;;3.30;78.70;;;;;;5104850;28;20032;-72
2022/01/10 10:00:42;;;;;;;5.35;1.92;;;3.60;76.80;;;;;;5090974;28;20361;-72
2022/01/10 10:03:08;;;;;;;2.40;1.30;;;3.60;77.30;;;;;;5094962;28;20035;-72
2022/01/10 10:05:34;;;;;;;19.35;10.15;;;4.40;84.60;;;;;;5091260;28;20052;-71
2022/01/10 10:08:00;;;;;;;4.20;1.23;;;4.20;77.30;;;;;;5103604;28;20032;-72
2022/01/10 10:10:28;;;;;;;10.38;5.57;;;3.80;76.80;;;;;;5102497;28;20567;-72
2022/01/10 10:12:54;;;;;;;23.10;13.80;;;3.80;76.70;;;;;;5099045;28;20073;-72
2022/01/10 10:15:28;;;;;;;4.63;2.28;;;3.70;77.00;;;;;;5105638;28;20051;-71
2022/01/10 10:17:54;;;;;;;2.75;1.38;;;3.70;77.30;;;;;;5104781;28;20070;-72
2022/01/10 10:20:22;;;;;;;2.25;0.88;;;3.70;77.30;;;;;;5105104;28;20036;-71
2022/01/10 10:22:50;;;;;;;3.45;2.05;;;3.90;76.50;;;;;;5101378;28;20102;-71
2022/01/10 10:25:17;;;;;;;3.30;1.30;;;3.90;77.10;;;;;;5104770;28;20043;-72
2022/01/10 10:27:45;;;;;;;1.73;0.73;;;3.90;77.50;;;;;;5101587;28;20031;-71
2022/01/10 10:30:13;;;;;;;4.00;0.95;;;3.60;79.20;;;;;;5099906;28;20028;-72
2022/01/10 10:32:39;;;;;;;3.60;1.17;;;3.70;77.80;;;;;;5093365;28;20156;-73
2022/01/10 10:35:06;;;;;;;6.20;1.35;;;3.60;79.70;;;;;;5097836;28;20024;-72
2022/01/10 10:37:37;;;;;;;6.38;1.30;;;3.70;77.70;;;;;;5105137;28;20069;-72
2022/01/10 10:40:07;;;;;;;2.00;0.93;;;4.00;76.50;;;;;;5096773;28;20027;-72
2022/01/10 10:42:33;;;;;;;6.75;1.27;;;4.30;76.00;;;;;;5101867;28;20031;-72
2022/01/10 10:45:07;;;;;;;1.85;0.73;;;4.30;75.20;;;;;;5104397;28;20130;-72
2022/01/10 10:47:35;;;;;;;2.42;1.05;;;4.50;76.10;;;;;;5104655;28;20028;-72
2022/01/10 10:50:05;;;;;;;2.67;0.88;;;4.40;76.30;;;;;;5104324;28;20058;-72
2022/01/10 10:52:36;;;;;;;2.00;0.70;;;4.70;75.10;;;;;;5103729;28;20031;-72
2022/01/10 10:55:15;;;;;;;2.45;1.13;;;4.60;76.00;;;;;;5104201;28;20052;-72
2022/01/10 10:57:43;;;;;;;2.00;0.80;;;4.80;74.90;;;;;;5099219;28;20032;-71
2022/01/10 11:00:15;;;;;;;2.75;1.02;;;5.20;72.90;;;;;;5104481;28;20095;-72
2022/01/10 11:02:42;;;;;;;3.17;0.82;;;5.50;73.90;;;;;;5095761;28;20454;-72
2022/01/10 11:05:08;;;;;;;1.35;0.73;;;5.50;73.50;;;;;;5101681;28;20061;-72
2022/01/10 11:07:35;;;;;;;2.70;0.93;;;5.40;73.40;;;;;;5104465;28;20024;-72
2022/01/10 11:10:05;;;;;;;2.58;0.65;;;5.30;73.10;;;;;;5102394;28;20130;-72
2022/01/10 11:12:33;;;;;;;2.10;0.80;;;5.50;73.00;;;;;;5101130;28;20024;-72
2022/01/10 11:15:00;;;;;;;2.08;0.73;;;5.80;71.50;;;;;;5096884;28;20398;-72
2022/01/10 11:17:27;;;;;;;1.65;0.60;;;6.00;72.20;;;;;;5096439;28;20793;-72
2022/01/10 11:20:16;;;;;;;3.85;0.70;;;5.90;72.60;;;;;;5103579;28;20028;-72
2022/01/10 11:23:04;;;;;;;3.33;1.02;;;6.10;71.50;;;;;;5098850;28;20065;-72
2022/01/10 11:25:36;;;;;;;2.92;0.98;;;6.20;70.70;;;;;;5102247;28;20055;-72
2022/01/10 11:28:08;;;;;;;1.75;0.57;;;6.30;69.80;;;;;;5103703;28;20032;-72
2022/01/10 11:30:38;;;;;;;2.72;0.60;;;6.50;70.10;;;;;;5102041;28;20034;-72
2022/01/10 11:33:14;;;;;;;0.98;0.40;;;6.80;69.80;;;;;;5103560;28;20031;-72
2022/01/10 11:35:45;;;;;;;1.00;0.45;;;6.80;68.90;;;;;;5094666;28;20020;-72
2022/01/10 11:38:25;;;;;;;1.85;0.60;;;6.90;69.10;;;;;;5103312;28;20567;-72
2022/01/10 11:41:10;;;;;;;1.92;0.65;;;7.00;69.50;;;;;;5102939;27;20042;-71
2022/01/10 11:43:56;;;;;;;4.07;0.47;;;7.00;69.60;;;;;;5103777;28;20593;-72
2022/01/10 11:46:25;;;;;;;1.30;0.50;;;7.00;67.90;;;;;;5099323;28;20064;-72
2022/01/10 11:48:50;;;;;;;0.47;0.30;;;7.10;68.20;;;;;;5101348;28;20032;-71
2022/01/10 11:51:22;;;;;;;1.02;0.30;;;7.40;66.90;;;;;;5102918;28;20543;-72
2022/01/10 11:53:59;;;;;;;3.78;0.60;;;7.40;66.40;;;;;;5102918;28;20386;-72
2022/01/10 11:56:31;;;;;;;1.17;0.38;;;7.60;66.50;;;;;;5103342;28;20032;-72
2022/01/10 11:59:17;;;;;;;0.52;0.30;;;7.60;66.80;;;;;;5105381;28;20055;-72
2022/01/10 12:02:04;;;;;;;0.47;0.30;;;7.70;66.40;;;;;;5104796;28;20031;-72
2022/01/10 12:04:35;;;;;;;1.25;0.30;;;7.70;65.60;;;;;;5092343;28;20036;-72
2022/01/10 12:07:04;;;;;;;5.80;0.55;;;7.90;65.30;;;;;;5106268;28;20024;-72
2022/01/10 12:09:30;;;;;;;1.15;0.47;;;7.90;64.50;;;;;;5098214;28;20464;-71
2022/01/10 12:11:58;;;;;;;0.65;0.30;;;8.10;63.60;;;;;;5106057;28;20075;-72
2022/01/10 12:14:25;;;;;;;0.80;0.30;;;8.20;63.30;;;;;;5105890;28;20626;-72
2022/01/10 12:16:52;;;;;;;1.38;0.47;;;8.10;64.10;;;;;;5106233;28;20081;-72
2022/01/10 12:19:19;;;;;;;1.20;0.45;;;8.10;63.90;;;;;;5105009;28;20127;-72
2022/01/10 12:21:45;;;;;;;0.90;0.32;;;8.00;64.40;;;;;;5100471;28;20560;-72
2022/01/10 12:24:14;;;;;;;1.30;0.55;;;8.10;64.30;;;;;;5109899;28;20059;-72
2022/01/10 12:26:41;;;;;;;1.55;0.38;;;8.00;63.60;;;;;;5108166;28;20422;-71
2022/01/10 12:29:08;;;;;;;2.38;0.57;;;8.20;63.40;;;;;;5102863;28;20057;-72
2022/01/10 12:31:36;;;;;;;1.35;0.70;;;8.30;63.20;;;;;;5109042;28;20024;-71
2022/01/10 12:34:03;;;;;;;1.20;0.20;;;8.30;63.00;;;;;;5110087;28;20084;-72
2022/01/10 12:36:31;;;;;;;1.60;0.60;;;8.20;63.80;;;;;;5109841;27;20031;-71
2022/01/10 12:38:59;;;;;;;0.85;0.30;;;8.40;63.50;;;;;;5105536;28;20477;-73
2022/01/10 12:41:26;;;;;;;1.13;0.40;;;8.50;63.80;;;;;;5108814;28;20034;-72
2022/01/10 12:43:52;;;;;;;1.17;0.20;;;8.40;63.80;;;;;;5098007;28;20405;-73
2022/01/10 12:46:19;;;;;;;0.75;0.63;;;8.30;62.90;;;;;;5109635;28;20039;-73
2022/01/10 12:48:48;;;;;;;1.13;0.32;;;8.50;63.00;;;;;;5110123;28;20419;-74
2022/01/10 12:51:15;;;;;;;2.25;0.32;;;8.60;62.80;;;;;;5103440;28;20031;-73
2022/01/10 12:53:47;;;;;;;2.75;0.50;;;8.50;62.60;;;;;;5096892;28;20092;-73
2022/01/10 12:56:18;;;;;;;3.03;1.27;;;8.60;63.00;;;;;;5097067;28;20023;-72
2022/01/10 12:58:44;;;;;;;4.75;0.80;;;8.40;62.80;;;;;;5106824;28;20036;-72
2022/01/10 13:01:13;;;;;;;0.50;0.20;;;8.40;63.20;;;;;;5105800;28;20024;-73
2022/01/10 13:03:44;;;;;;;2.00;0.30;;;8.50;62.70;;;;;;5106168;28;20028;-73
2022/01/10 13:06:10;;;;;;;0.10;0.10;;;8.70;61.20;;;;;;5106380;28;20031;-72